Etusivu
METAR-TAF:

METAR-TAF

Lentoasemat :

Waukegan Regional Airport

Waukegan, Illinois, Yhdysvallat

Leveyspiiri: 42-25N, Pituuspiiri: 087-52W, korkeus merenpinnasta: 222 m

Tämänhetkinen sää

Tämä raportti tehtiin 31 minuuttia sitten, kello 17.31 UTC
Tuuli 15 kn etelästä/kaakosta puuskistuen 30 kn:hen
Lämpötila 14°C
Kosteus 88%
Ilmanpaine 996 hPa
Näkyvyys: 16.1 km
Hajanaisia pilviä 800 ft:n korkeudessa
Hajonneita pilviä 1500 ft:n korkeudessa
Pilvistä 2000 ft:n korkeudessa

METAR: KUGN 211731Z 15015G30KT 10SM SCT008 BKN015 OVC020 14/12 A2942 RMK AO2 PK WND 14033/1703 RAB11E30 P0001 T01390122

Aika: 13:02 (18:02 UTC)


TAF: puuttuu

Säähavainnot ja -ennusteet yli 4000 lentoasemalta (METAR- ja TAF-raportit).

Käytössä olevat sääasemat on merkitty karttaan keltaisilla ja punaisilla pisteillä.

Aseta hiiri pisteen päälle nähdäksesi sääaseman nimen.

Klikkaa sitten nähdäksesi säähavainnot ja -ennusteet.

Kartan vaihtaminen: klikkaa mustalla rastilla varustettuja vihreitä pisteitä, niin voit zoomata sisään; viivalla varustettua vihreää pistettä, niin voit zoomata ulos tai vihreitä nuolia, niin pääset viereisille kartoille.


METAR-TAF: